sensor_id;sensor_type;location;lat;lon;timestamp;P1;durP1;ratioP1;P2;durP2;ratioP2
13349;SDS011;6744;53.190;6.576;2023-07-13T00:01:39;4.53;;;2.03;;
13349;SDS011;6744;53.190;6.576;2023-07-13T00:04:04;3.73;;;1.77;;
13349;SDS011;6744;53.190;6.576;2023-07-13T00:06:30;5.60;;;2.07;;
13349;SDS011;6744;53.190;6.576;2023-07-13T00:08:58;8.20;;;2.83;;
13349;SDS011;6744;53.190;6.576;2023-07-13T00:11:24;8.00;;;2.40;;
13349;SDS011;6744;53.190;6.576;2023-07-13T00:13:49;6.03;;;2.47;;
13349;SDS011;6744;53.190;6.576;2023-07-13T00:16:15;6.80;;;2.10;;
13349;SDS011;6744;53.190;6.576;2023-07-13T00:18:41;6.70;;;2.20;;
13349;SDS011;6744;53.190;6.576;2023-07-13T00:21:06;6.80;;;2.03;;
13349;SDS011;6744;53.190;6.576;2023-07-13T00:23:33;6.57;;;2.40;;
13349;SDS011;6744;53.190;6.576;2023-07-13T00:26:03;6.83;;;2.23;;
13349;SDS011;6744;53.190;6.576;2023-07-13T00:28:30;6.27;;;2.40;;
13349;SDS011;6744;53.190;6.576;2023-07-13T00:30:55;4.97;;;1.93;;
13349;SDS011;6744;53.190;6.576;2023-07-13T00:33:21;7.27;;;2.23;;
13349;SDS011;6744;53.190;6.576;2023-07-13T00:35:48;7.20;;;2.07;;
13349;SDS011;6744;53.190;6.576;2023-07-13T00:38:14;4.63;;;2.17;;
13349;SDS011;6744;53.190;6.576;2023-07-13T00:40:39;5.97;;;2.13;;
13349;SDS011;6744;53.190;6.576;2023-07-13T00:43:09;7.80;;;2.57;;
13349;SDS011;6744;53.190;6.576;2023-07-13T00:48:25;5.43;;;2.30;;
13349;SDS011;6744;53.190;6.576;2023-07-13T00:50:54;6.37;;;2.37;;
13349;SDS011;6744;53.190;6.576;2023-07-13T00:53:21;7.57;;;2.40;;
13349;SDS011;6744;53.190;6.576;2023-07-13T00:55:47;9.57;;;2.57;;
13349;SDS011;6744;53.190;6.576;2023-07-13T00:58:14;5.27;;;2.17;;
13349;SDS011;6744;53.190;6.576;2023-07-13T01:00:40;6.97;;;2.40;;
13349;SDS011;6744;53.190;6.576;2023-07-13T01:03:06;7.07;;;2.67;;
13349;SDS011;6744;53.190;6.576;2023-07-13T01:05:32;10.87;;;2.90;;
13349;SDS011;6744;53.190;6.576;2023-07-13T01:07:59;4.87;;;2.30;;
13349;SDS011;6744;53.190;6.576;2023-07-13T01:10:25;7.27;;;2.67;;
13349;SDS011;6744;53.190;6.576;2023-07-13T01:12:51;4.70;;;1.93;;
13349;SDS011;6744;53.190;6.576;2023-07-13T01:18:09;5.80;;;2.10;;
13349;SDS011;6744;53.190;6.576;2023-07-13T01:20:37;5.33;;;2.30;;
13349;SDS011;6744;53.190;6.576;2023-07-13T01:23:06;4.10;;;2.03;;
13349;SDS011;6744;53.190;6.576;2023-07-13T01:25:34;6.20;;;2.47;;
13349;SDS011;6744;53.190;6.576;2023-07-13T01:28:00;6.27;;;2.80;;
13349;SDS011;6744;53.190;6.576;2023-07-13T01:30:26;5.93;;;2.10;;
13349;SDS011;6744;53.190;6.576;2023-07-13T01:32:51;7.27;;;2.87;;
13349;SDS011;6744;53.190;6.576;2023-07-13T01:35:17;6.50;;;2.57;;
13349;SDS011;6744;53.190;6.576;2023-07-13T01:37:42;8.30;;;2.63;;
13349;SDS011;6744;53.190;6.576;2023-07-13T01:40:10;6.10;;;2.67;;
13349;SDS011;6744;53.190;6.576;2023-07-13T01:42:36;6.53;;;2.83;;
13349;SDS011;6744;53.190;6.576;2023-07-13T01:45:01;8.00;;;2.57;;
13349;SDS011;6744;53.190;6.576;2023-07-13T01:47:27;7.00;;;2.57;;
13349;SDS011;6744;53.190;6.576;2023-07-13T01:49:53;9.07;;;2.70;;
13349;SDS011;6744;53.190;6.576;2023-07-13T01:52:19;8.20;;;3.37;;
13349;SDS011;6744;53.190;6.576;2023-07-13T01:54:44;6.03;;;2.33;;
13349;SDS011;6744;53.190;6.576;2023-07-13T01:57:10;8.40;;;3.00;;
13349;SDS011;6744;53.190;6.576;2023-07-13T01:59:35;7.93;;;2.97;;
13349;SDS011;6744;53.190;6.576;2023-07-13T02:02:00;6.47;;;2.50;;
13349;SDS011;6744;53.190;6.576;2023-07-13T02:04:26;7.17;;;3.03;;
13349;SDS011;6744;53.190;6.576;2023-07-13T02:06:51;10.00;;;3.00;;
13349;SDS011;6744;53.190;6.576;2023-07-13T02:09:17;10.47;;;3.27;;
13349;SDS011;6744;53.190;6.576;2023-07-13T02:11:42;8.90;;;2.87;;
13349;SDS011;6744;53.190;6.576;2023-07-13T02:14:07;10.33;;;3.33;;
13349;SDS011;6744;53.190;6.576;2023-07-13T02:16:33;6.50;;;2.90;;
13349;SDS011;6744;53.190;6.576;2023-07-13T02:18:58;8.30;;;2.73;;
13349;SDS011;6744;53.190;6.576;2023-07-13T02:21:25;6.97;;;2.90;;
13349;SDS011;6744;53.190;6.576;2023-07-13T02:23:50;6.30;;;2.37;;
13349;SDS011;6744;53.190;6.576;2023-07-13T02:26:17;10.07;;;2.77;;
13349;SDS011;6744;53.190;6.576;2023-07-13T02:28:42;7.03;;;2.73;;
13349;SDS011;6744;53.190;6.576;2023-07-13T02:31:09;7.60;;;2.83;;
13349;SDS011;6744;53.190;6.576;2023-07-13T02:33:36;6.00;;;2.60;;
13349;SDS011;6744;53.190;6.576;2023-07-13T02:36:02;5.07;;;2.50;;
13349;SDS011;6744;53.190;6.576;2023-07-13T02:38:28;5.97;;;2.70;;
13349;SDS011;6744;53.190;6.576;2023-07-13T02:40:53;5.30;;;2.57;;
13349;SDS011;6744;53.190;6.576;2023-07-13T02:43:19;8.00;;;3.03;;
13349;SDS011;6744;53.190;6.576;2023-07-13T02:45:45;7.93;;;3.37;;
13349;SDS011;6744;53.190;6.576;2023-07-13T02:48:10;8.67;;;3.40;;
13349;SDS011;6744;53.190;6.576;2023-07-13T02:50:38;8.17;;;2.97;;
13349;SDS011;6744;53.190;6.576;2023-07-13T02:53:03;5.90;;;2.80;;
13349;SDS011;6744;53.190;6.576;2023-07-13T02:55:29;13.40;;;3.70;;
13349;SDS011;6744;53.190;6.576;2023-07-13T02:57:54;6.07;;;3.53;;
13349;SDS011;6744;53.190;6.576;2023-07-13T03:00:20;7.50;;;2.90;;
13349;SDS011;6744;53.190;6.576;2023-07-13T03:02:45;9.90;;;3.03;;
13349;SDS011;6744;53.190;6.576;2023-07-13T03:05:10;7.00;;;2.93;;
13349;SDS011;6744;53.190;6.576;2023-07-13T03:07:37;6.80;;;3.33;;
13349;SDS011;6744;53.190;6.576;2023-07-13T03:10:03;6.10;;;2.80;;
13349;SDS011;6744;53.190;6.576;2023-07-13T03:12:29;11.87;;;4.00;;
13349;SDS011;6744;53.190;6.576;2023-07-13T03:14:54;11.60;;;3.57;;
13349;SDS011;6744;53.190;6.576;2023-07-13T03:17:20;9.70;;;3.57;;
13349;SDS011;6744;53.190;6.576;2023-07-13T03:19:45;10.37;;;3.67;;
13349;SDS011;6744;53.190;6.576;2023-07-13T03:22:14;6.93;;;3.27;;
13349;SDS011;6744;53.190;6.576;2023-07-13T03:24:41;10.63;;;3.37;;
13349;SDS011;6744;53.190;6.576;2023-07-13T03:27:06;9.50;;;3.07;;
13349;SDS011;6744;53.190;6.576;2023-07-13T03:29:32;6.30;;;2.80;;
13349;SDS011;6744;53.190;6.576;2023-07-13T03:31:57;10.03;;;3.27;;
13349;SDS011;6744;53.190;6.576;2023-07-13T03:34:23;8.27;;;3.20;;
13349;SDS011;6744;53.190;6.576;2023-07-13T03:36:48;8.10;;;3.17;;
13349;SDS011;6744;53.190;6.576;2023-07-13T03:39:14;10.00;;;3.47;;
13349;SDS011;6744;53.190;6.576;2023-07-13T03:41:39;8.83;;;2.83;;
13349;SDS011;6744;53.190;6.576;2023-07-13T03:44:04;9.70;;;3.63;;
13349;SDS011;6744;53.190;6.576;2023-07-13T03:46:30;10.13;;;3.60;;
13349;SDS011;6744;53.190;6.576;2023-07-13T03:48:56;11.10;;;3.63;;
13349;SDS011;6744;53.190;6.576;2023-07-13T03:51:22;6.57;;;3.40;;
13349;SDS011;6744;53.190;6.576;2023-07-13T03:53:48;7.07;;;2.90;;
13349;SDS011;6744;53.190;6.576;2023-07-13T03:56:13;9.17;;;3.50;;
13349;SDS011;6744;53.190;6.576;2023-07-13T03:58:40;13.20;;;3.70;;
13349;SDS011;6744;53.190;6.576;2023-07-13T04:01:08;9.60;;;3.00;;
13349;SDS011;6744;53.190;6.576;2023-07-13T04:03:34;8.77;;;3.17;;
13349;SDS011;6744;53.190;6.576;2023-07-13T04:06:00;10.80;;;3.33;;
13349;SDS011;6744;53.190;6.576;2023-07-13T04:08:28;8.57;;;2.77;;
13349;SDS011;6744;53.190;6.576;2023-07-13T04:11:00;8.43;;;3.00;;
13349;SDS011;6744;53.190;6.576;2023-07-13T04:13:26;10.87;;;3.70;;
13349;SDS011;6744;53.190;6.576;2023-07-13T04:15:52;6.63;;;2.43;;
13349;SDS011;6744;53.190;6.576;2023-07-13T04:18:18;8.73;;;2.83;;
13349;SDS011;6744;53.190;6.576;2023-07-13T04:20:45;10.80;;;3.50;;
13349;SDS011;6744;53.190;6.576;2023-07-13T04:23:14;6.33;;;2.97;;
13349;SDS011;6744;53.190;6.576;2023-07-13T04:25:43;10.37;;;3.27;;
13349;SDS011;6744;53.190;6.576;2023-07-13T04:28:14;9.27;;;3.37;;
13349;SDS011;6744;53.190;6.576;2023-07-13T04:30:40;9.03;;;3.30;;
13349;SDS011;6744;53.190;6.576;2023-07-13T04:33:05;10.83;;;3.73;;
13349;SDS011;6744;53.190;6.576;2023-07-13T04:35:31;9.80;;;3.47;;
13349;SDS011;6744;53.190;6.576;2023-07-13T04:37:56;9.47;;;3.67;;
13349;SDS011;6744;53.190;6.576;2023-07-13T04:40:22;10.43;;;3.53;;
13349;SDS011;6744;53.190;6.576;2023-07-13T04:42:47;11.33;;;4.00;;
13349;SDS011;6744;53.190;6.576;2023-07-13T04:45:13;8.40;;;3.20;;
13349;SDS011;6744;53.190;6.576;2023-07-13T04:47:39;10.17;;;3.50;;
13349;SDS011;6744;53.190;6.576;2023-07-13T04:50:06;12.27;;;3.73;;
13349;SDS011;6744;53.190;6.576;2023-07-13T04:52:32;11.77;;;3.87;;
13349;SDS011;6744;53.190;6.576;2023-07-13T04:54:58;11.97;;;3.80;;
13349;SDS011;6744;53.190;6.576;2023-07-13T04:57:24;13.57;;;4.37;;
13349;SDS011;6744;53.190;6.576;2023-07-13T04:59:50;11.80;;;3.73;;
13349;SDS011;6744;53.190;6.576;2023-07-13T05:02:15;8.73;;;3.53;;
13349;SDS011;6744;53.190;6.576;2023-07-13T05:04:41;7.17;;;3.60;;
13349;SDS011;6744;53.190;6.576;2023-07-13T05:07:06;9.40;;;3.73;;
13349;SDS011;6744;53.190;6.576;2023-07-13T05:09:32;10.10;;;3.33;;
13349;SDS011;6744;53.190;6.576;2023-07-13T05:11:57;9.90;;;3.00;;
13349;SDS011;6744;53.190;6.576;2023-07-13T05:14:23;9.23;;;3.47;;
13349;SDS011;6744;53.190;6.576;2023-07-13T05:16:48;9.80;;;3.87;;
13349;SDS011;6744;53.190;6.576;2023-07-13T05:19:13;8.73;;;3.60;;
13349;SDS011;6744;53.190;6.576;2023-07-13T05:21:39;10.13;;;3.50;;
13349;SDS011;6744;53.190;6.576;2023-07-13T05:24:06;8.83;;;3.40;;
13349;SDS011;6744;53.190;6.576;2023-07-13T05:26:31;8.80;;;3.40;;
13349;SDS011;6744;53.190;6.576;2023-07-13T05:28:57;9.43;;;3.17;;
13349;SDS011;6744;53.190;6.576;2023-07-13T05:31:22;9.50;;;3.43;;
13349;SDS011;6744;53.190;6.576;2023-07-13T05:33:47;8.37;;;3.70;;
13349;SDS011;6744;53.190;6.576;2023-07-13T05:36:13;9.13;;;3.63;;
13349;SDS011;6744;53.190;6.576;2023-07-13T05:38:38;10.07;;;3.37;;
13349;SDS011;6744;53.190;6.576;2023-07-13T05:41:05;10.17;;;3.43;;
13349;SDS011;6744;53.190;6.576;2023-07-13T05:43:31;7.77;;;3.47;;
13349;SDS011;6744;53.190;6.576;2023-07-13T05:45:56;10.23;;;3.60;;
13349;SDS011;6744;53.190;6.576;2023-07-13T05:48:22;10.77;;;3.20;;
13349;SDS011;6744;53.190;6.576;2023-07-13T05:50:48;9.30;;;3.10;;
13349;SDS011;6744;53.190;6.576;2023-07-13T05:53:14;10.63;;;3.80;;
13349;SDS011;6744;53.190;6.576;2023-07-13T05:55:43;7.00;;;2.97;;
13349;SDS011;6744;53.190;6.576;2023-07-13T05:58:12;9.27;;;3.30;;
13349;SDS011;6744;53.190;6.576;2023-07-13T06:00:37;9.47;;;3.50;;
13349;SDS011;6744;53.190;6.576;2023-07-13T06:03:03;10.10;;;3.00;;
13349;SDS011;6744;53.190;6.576;2023-07-13T06:05:28;7.33;;;2.53;;
13349;SDS011;6744;53.190;6.576;2023-07-13T06:07:54;5.80;;;2.90;;
13349;SDS011;6744;53.190;6.576;2023-07-13T06:10:20;6.53;;;2.87;;
13349;SDS011;6744;53.190;6.576;2023-07-13T06:12:45;8.90;;;3.10;;
13349;SDS011;6744;53.190;6.576;2023-07-13T06:15:11;8.57;;;2.93;;
13349;SDS011;6744;53.190;6.576;2023-07-13T06:17:36;9.17;;;2.83;;
13349;SDS011;6744;53.190;6.576;2023-07-13T06:20:02;7.40;;;2.70;;
13349;SDS011;6744;53.190;6.576;2023-07-13T06:22:27;7.07;;;2.30;;
13349;SDS011;6744;53.190;6.576;2023-07-13T06:24:53;6.57;;;2.50;;
13349;SDS011;6744;53.190;6.576;2023-07-13T06:27:18;9.63;;;2.73;;
13349;SDS011;6744;53.190;6.576;2023-07-13T06:29:44;7.80;;;2.60;;
13349;SDS011;6744;53.190;6.576;2023-07-13T06:32:10;9.27;;;2.87;;
13349;SDS011;6744;53.190;6.576;2023-07-13T06:34:35;10.13;;;2.90;;
13349;SDS011;6744;53.190;6.576;2023-07-13T06:37:01;8.03;;;2.50;;
13349;SDS011;6744;53.190;6.576;2023-07-13T06:39:26;7.60;;;2.80;;
13349;SDS011;6744;53.190;6.576;2023-07-13T06:41:51;5.87;;;2.70;;
13349;SDS011;6744;53.190;6.576;2023-07-13T06:44:17;8.73;;;2.83;;
13349;SDS011;6744;53.190;6.576;2023-07-13T06:46:42;7.03;;;2.40;;
13349;SDS011;6744;53.190;6.576;2023-07-13T06:49:08;9.23;;;2.70;;
13349;SDS011;6744;53.190;6.576;2023-07-13T06:51:34;5.47;;;2.20;;
13349;SDS011;6744;53.190;6.576;2023-07-13T06:53:59;7.97;;;2.47;;
13349;SDS011;6744;53.190;6.576;2023-07-13T06:56:25;7.93;;;2.57;;
13349;SDS011;6744;53.190;6.576;2023-07-13T06:58:50;7.97;;;2.50;;
13349;SDS011;6744;53.190;6.576;2023-07-13T07:01:16;9.90;;;2.50;;
13349;SDS011;6744;53.190;6.576;2023-07-13T07:03:41;5.73;;;1.93;;
13349;SDS011;6744;53.190;6.576;2023-07-13T07:06:20;6.90;;;2.00;;
13349;SDS011;6744;53.190;6.576;2023-07-13T07:08:48;6.87;;;2.00;;
13349;SDS011;6744;53.190;6.576;2023-07-13T07:11:16;4.53;;;1.97;;
13349;SDS011;6744;53.190;6.576;2023-07-13T07:13:44;6.13;;;1.90;;
13349;SDS011;6744;53.190;6.576;2023-07-13T07:16:09;4.50;;;1.80;;
13349;SDS011;6744;53.190;6.576;2023-07-13T07:18:35;5.63;;;2.03;;
13349;SDS011;6744;53.190;6.576;2023-07-13T07:21:01;5.33;;;1.83;;
13349;SDS011;6744;53.190;6.576;2023-07-13T07:23:26;5.90;;;1.60;;
13349;SDS011;6744;53.190;6.576;2023-07-13T07:25:52;4.97;;;1.90;;
13349;SDS011;6744;53.190;6.576;2023-07-13T07:28:18;5.73;;;1.67;;
13349;SDS011;6744;53.190;6.576;2023-07-13T07:30:44;4.40;;;1.87;;
13349;SDS011;6744;53.190;6.576;2023-07-13T07:33:10;6.53;;;2.20;;
13349;SDS011;6744;53.190;6.576;2023-07-13T07:35:36;5.63;;;1.80;;
13349;SDS011;6744;53.190;6.576;2023-07-13T07:38:01;4.23;;;1.73;;
13349;SDS011;6744;53.190;6.576;2023-07-13T07:40:27;4.30;;;1.80;;
13349;SDS011;6744;53.190;6.576;2023-07-13T07:42:52;4.43;;;2.10;;
13349;SDS011;6744;53.190;6.576;2023-07-13T07:45:18;4.97;;;2.20;;
13349;SDS011;6744;53.190;6.576;2023-07-13T07:47:44;5.33;;;2.13;;
13349;SDS011;6744;53.190;6.576;2023-07-13T07:50:09;5.10;;;2.03;;
13349;SDS011;6744;53.190;6.576;2023-07-13T07:52:35;5.37;;;2.13;;
13349;SDS011;6744;53.190;6.576;2023-07-13T07:55:00;8.07;;;1.93;;
13349;SDS011;6744;53.190;6.576;2023-07-13T07:57:26;4.80;;;2.40;;
13349;SDS011;6744;53.190;6.576;2023-07-13T07:59:51;4.63;;;1.90;;
13349;SDS011;6744;53.190;6.576;2023-07-13T08:02:16;6.30;;;2.10;;
13349;SDS011;6744;53.190;6.576;2023-07-13T08:04:42;5.77;;;2.10;;
13349;SDS011;6744;53.190;6.576;2023-07-13T08:07:08;4.63;;;1.97;;
13349;SDS011;6744;53.190;6.576;2023-07-13T08:09:34;4.90;;;2.10;;
13349;SDS011;6744;53.190;6.576;2023-07-13T08:11:59;3.83;;;2.00;;
13349;SDS011;6744;53.190;6.576;2023-07-13T08:14:25;4.43;;;1.77;;
13349;SDS011;6744;53.190;6.576;2023-07-13T08:16:50;1.90;;;1.50;;
13349;SDS011;6744;53.190;6.576;2023-07-13T08:19:16;3.33;;;1.80;;
13349;SDS011;6744;53.190;6.576;2023-07-13T08:21:41;2.80;;;1.53;;
13349;SDS011;6744;53.190;6.576;2023-07-13T08:24:08;4.10;;;1.73;;
13349;SDS011;6744;53.190;6.576;2023-07-13T08:26:34;3.20;;;1.50;;
13349;SDS011;6744;53.190;6.576;2023-07-13T08:28:59;3.07;;;1.67;;
13349;SDS011;6744;53.190;6.576;2023-07-13T08:31:24;3.27;;;1.53;;
13349;SDS011;6744;53.190;6.576;2023-07-13T08:33:50;3.00;;;1.63;;
13349;SDS011;6744;53.190;6.576;2023-07-13T08:36:15;2.80;;;1.47;;
13349;SDS011;6744;53.190;6.576;2023-07-13T08:38:41;5.33;;;1.97;;
13349;SDS011;6744;53.190;6.576;2023-07-13T08:41:24;4.10;;;1.40;;
13349;SDS011;6744;53.190;6.576;2023-07-13T08:43:51;3.57;;;1.83;;
13349;SDS011;6744;53.190;6.576;2023-07-13T08:46:23;3.67;;;1.83;;
13349;SDS011;6744;53.190;6.576;2023-07-13T08:48:52;5.50;;;1.60;;
13349;SDS011;6744;53.190;6.576;2023-07-13T08:53:51;5.73;;;1.73;;
13349;SDS011;6744;53.190;6.576;2023-07-13T08:56:20;5.27;;;2.17;;
13349;SDS011;6744;53.190;6.576;2023-07-13T08:58:49;3.83;;;1.43;;
13349;SDS011;6744;53.190;6.576;2023-07-13T09:04:25;3.27;;;1.50;;
13349;SDS011;6744;53.190;6.576;2023-07-13T09:12:31;4.57;;;1.57;;
13349;SDS011;6744;53.190;6.576;2023-07-13T09:15:02;3.20;;;1.43;;
13349;SDS011;6744;53.190;6.576;2023-07-13T09:17:50;3.00;;;1.60;;
13349;SDS011;6744;53.190;6.576;2023-07-13T09:20:20;4.53;;;1.60;;
13349;SDS011;6744;53.190;6.576;2023-07-13T09:23:01;2.90;;;1.33;;
13349;SDS011;6744;53.190;6.576;2023-07-13T09:25:35;6.60;;;1.90;;
13349;SDS011;6744;53.190;6.576;2023-07-13T09:28:24;3.77;;;1.43;;
13349;SDS011;6744;53.190;6.576;2023-07-13T09:31:01;4.00;;;1.70;;
13349;SDS011;6744;53.190;6.576;2023-07-13T09:33:28;3.37;;;1.83;;
13349;SDS011;6744;53.190;6.576;2023-07-13T09:35:56;3.80;;;1.50;;
13349;SDS011;6744;53.190;6.576;2023-07-13T09:38:26;3.57;;;1.63;;
13349;SDS011;6744;53.190;6.576;2023-07-13T09:43:38;5.13;;;1.67;;
13349;SDS011;6744;53.190;6.576;2023-07-13T09:46:04;3.57;;;1.60;;
13349;SDS011;6744;53.190;6.576;2023-07-13T09:48:36;5.20;;;2.23;;
13349;SDS011;6744;53.190;6.576;2023-07-13T09:51:14;4.77;;;1.70;;
13349;SDS011;6744;53.190;6.576;2023-07-13T09:53:43;4.13;;;2.00;;
13349;SDS011;6744;53.190;6.576;2023-07-13T09:56:21;3.17;;;1.73;;
13349;SDS011;6744;53.190;6.576;2023-07-13T09:58:54;5.67;;;2.23;;
13349;SDS011;6744;53.190;6.576;2023-07-13T10:01:33;3.03;;;1.80;;
13349;SDS011;6744;53.190;6.576;2023-07-13T10:04:00;4.20;;;1.67;;
13349;SDS011;6744;53.190;6.576;2023-07-13T10:06:26;3.17;;;2.00;;
13349;SDS011;6744;53.190;6.576;2023-07-13T10:08:52;3.37;;;1.90;;
13349;SDS011;6744;53.190;6.576;2023-07-13T10:11:22;2.53;;;2.00;;
13349;SDS011;6744;53.190;6.576;2023-07-13T10:14:00;4.03;;;2.20;;
13349;SDS011;6744;53.190;6.576;2023-07-13T10:16:48;6.80;;;2.50;;
13349;SDS011;6744;53.190;6.576;2023-07-13T10:19:28;4.23;;;2.10;;
13349;SDS011;6744;53.190;6.576;2023-07-13T10:22:44;3.43;;;1.70;;
13349;SDS011;6744;53.190;6.576;2023-07-13T10:24:46;4.53;;;1.50;;
13349;SDS011;6744;53.190;6.576;2023-07-13T10:29:48;5.70;;;2.23;;
13349;SDS011;6744;53.190;6.576;2023-07-13T10:32:17;4.13;;;2.20;;
13349;SDS011;6744;53.190;6.576;2023-07-13T10:34:45;5.17;;;2.53;;
13349;SDS011;6744;53.190;6.576;2023-07-13T10:37:17;7.20;;;2.80;;
13349;SDS011;6744;53.190;6.576;2023-07-13T10:39:45;6.47;;;2.50;;
13349;SDS011;6744;53.190;6.576;2023-07-13T10:42:11;5.17;;;2.47;;
13349;SDS011;6744;53.190;6.576;2023-07-13T10:44:40;6.03;;;2.60;;
13349;SDS011;6744;53.190;6.576;2023-07-13T10:47:07;4.43;;;1.63;;
13349;SDS011;6744;53.190;6.576;2023-07-13T10:49:33;3.10;;;1.07;;
13349;SDS011;6744;53.190;6.576;2023-07-13T10:52:00;2.93;;;1.00;;
13349;SDS011;6744;53.190;6.576;2023-07-13T10:59:46;1.77;;;1.00;;
13349;SDS011;6744;53.190;6.576;2023-07-13T11:02:24;2.83;;;1.27;;
13349;SDS011;6744;53.190;6.576;2023-07-13T11:04:51;2.70;;;1.10;;
13349;SDS011;6744;53.190;6.576;2023-07-13T11:07:28;2.77;;;1.23;;
13349;SDS011;6744;53.190;6.576;2023-07-13T11:09:56;2.90;;;1.03;;
13349;SDS011;6744;53.190;6.576;2023-07-13T11:22:41;3.17;;;1.10;;
13349;SDS011;6744;53.190;6.576;2023-07-13T11:25:28;3.20;;;1.23;;
13349;SDS011;6744;53.190;6.576;2023-07-13T11:33:02;3.87;;;1.33;;
13349;SDS011;6744;53.190;6.576;2023-07-13T11:35:30;3.23;;;1.17;;
13349;SDS011;6744;53.190;6.576;2023-07-13T11:37:58;2.93;;;1.20;;
13349;SDS011;6744;53.190;6.576;2023-07-13T11:40:24;2.47;;;1.37;;
13349;SDS011;6744;53.190;6.576;2023-07-13T11:42:57;3.27;;;1.50;;
13349;SDS011;6744;53.190;6.576;2023-07-13T11:45:24;3.20;;;1.27;;
13349;SDS011;6744;53.190;6.576;2023-07-13T11:47:50;4.43;;;1.43;;
13349;SDS011;6744;53.190;6.576;2023-07-13T11:50:19;2.83;;;1.20;;
13349;SDS011;6744;53.190;6.576;2023-07-13T11:52:46;3.93;;;1.50;;
13349;SDS011;6744;53.190;6.576;2023-07-13T11:55:14;5.13;;;1.70;;
13349;SDS011;6744;53.190;6.576;2023-07-13T11:57:47;2.57;;;1.20;;
13349;SDS011;6744;53.190;6.576;2023-07-13T12:00:17;2.23;;;1.13;;
13349;SDS011;6744;53.190;6.576;2023-07-13T12:02:46;3.80;;;1.30;;
13349;SDS011;6744;53.190;6.576;2023-07-13T12:05:15;3.60;;;1.50;;
13349;SDS011;6744;53.190;6.576;2023-07-13T12:07:42;3.33;;;1.50;;
13349;SDS011;6744;53.190;6.576;2023-07-13T12:12:37;2.13;;;1.20;;
13349;SDS011;6744;53.190;6.576;2023-07-13T12:15:06;4.33;;;1.27;;
13349;SDS011;6744;53.190;6.576;2023-07-13T12:17:33;2.90;;;1.20;;
13349;SDS011;6744;53.190;6.576;2023-07-13T12:19:59;3.77;;;1.57;;
13349;SDS011;6744;53.190;6.576;2023-07-13T12:22:25;3.63;;;1.40;;
13349;SDS011;6744;53.190;6.576;2023-07-13T12:24:50;3.73;;;1.30;;
13349;SDS011;6744;53.190;6.576;2023-07-13T12:27:21;3.97;;;1.50;;
13349;SDS011;6744;53.190;6.576;2023-07-13T12:30:21;2.73;;;1.30;;
13349;SDS011;6744;53.190;6.576;2023-07-13T12:33:01;5.40;;;1.50;;
13349;SDS011;6744;53.190;6.576;2023-07-13T12:35:28;2.03;;;1.10;;
13349;SDS011;6744;53.190;6.576;2023-07-13T12:37:56;4.30;;;1.47;;
13349;SDS011;6744;53.190;6.576;2023-07-13T12:40:25;2.83;;;1.60;;
13349;SDS011;6744;53.190;6.576;2023-07-13T12:42:53;5.63;;;1.40;;
13349;SDS011;6744;53.190;6.576;2023-07-13T12:45:21;2.90;;;1.23;;
13349;SDS011;6744;53.190;6.576;2023-07-13T12:47:49;2.33;;;1.40;;
13349;SDS011;6744;53.190;6.576;2023-07-13T12:50:19;4.30;;;1.37;;
13349;SDS011;6744;53.190;6.576;2023-07-13T12:52:53;1.37;;;1.23;;
13349;SDS011;6744;53.190;6.576;2023-07-13T12:55:20;4.53;;;1.50;;
13349;SDS011;6744;53.190;6.576;2023-07-13T13:00:31;5.10;;;1.63;;
13349;SDS011;6744;53.190;6.576;2023-07-13T13:03:00;4.50;;;1.70;;
13349;SDS011;6744;53.190;6.576;2023-07-13T13:05:28;5.40;;;1.40;;
13349;SDS011;6744;53.190;6.576;2023-07-13T13:07:55;3.47;;;1.70;;
13349;SDS011;6744;53.190;6.576;2023-07-13T13:10:20;2.60;;;1.50;;
13349;SDS011;6744;53.190;6.576;2023-07-13T13:12:46;4.63;;;1.70;;
13349;SDS011;6744;53.190;6.576;2023-07-13T13:15:12;4.93;;;1.70;;
13349;SDS011;6744;53.190;6.576;2023-07-13T13:17:38;5.57;;;1.60;;
13349;SDS011;6744;53.190;6.576;2023-07-13T13:20:17;2.50;;;1.20;;
13349;SDS011;6744;53.190;6.576;2023-07-13T13:22:43;5.90;;;1.57;;
13349;SDS011;6744;53.190;6.576;2023-07-13T13:25:10;5.43;;;1.70;;
13349;SDS011;6744;53.190;6.576;2023-07-13T13:27:36;3.90;;;1.73;;
13349;SDS011;6744;53.190;6.576;2023-07-13T13:30:02;3.43;;;1.70;;
13349;SDS011;6744;53.190;6.576;2023-07-13T13:32:27;5.23;;;1.83;;
13349;SDS011;6744;53.190;6.576;2023-07-13T13:34:53;2.90;;;1.47;;
13349;SDS011;6744;53.190;6.576;2023-07-13T13:37:19;3.70;;;1.40;;
13349;SDS011;6744;53.190;6.576;2023-07-13T13:39:46;5.60;;;1.67;;
13349;SDS011;6744;53.190;6.576;2023-07-13T13:42:12;2.70;;;1.50;;
13349;SDS011;6744;53.190;6.576;2023-07-13T13:44:37;2.97;;;1.60;;
13349;SDS011;6744;53.190;6.576;2023-07-13T13:47:03;2.60;;;1.50;;
13349;SDS011;6744;53.190;6.576;2023-07-13T13:49:29;2.60;;;1.40;;
13349;SDS011;6744;53.190;6.576;2023-07-13T13:51:55;2.97;;;1.23;;
13349;SDS011;6744;53.190;6.576;2023-07-13T13:54:21;5.87;;;1.97;;
13349;SDS011;6744;53.190;6.576;2023-07-13T13:56:48;4.97;;;1.60;;
13349;SDS011;6744;53.190;6.576;2023-07-13T13:59:15;5.63;;;1.60;;
13349;SDS011;6744;53.190;6.576;2023-07-13T14:01:40;4.73;;;2.03;;
13349;SDS011;6744;53.190;6.576;2023-07-13T14:04:08;4.27;;;1.83;;
13349;SDS011;6744;53.190;6.576;2023-07-13T14:06:40;3.43;;;1.70;;
13349;SDS011;6744;53.190;6.576;2023-07-13T14:09:07;6.20;;;2.00;;
13349;SDS011;6744;53.190;6.576;2023-07-13T14:11:35;3.67;;;1.80;;
13349;SDS011;6744;53.190;6.576;2023-07-13T14:14:00;4.50;;;1.90;;
13349;SDS011;6744;53.190;6.576;2023-07-13T14:16:31;6.40;;;1.87;;
13349;SDS011;6744;53.190;6.576;2023-07-13T14:18:59;4.47;;;1.90;;
13349;SDS011;6744;53.190;6.576;2023-07-13T14:21:25;4.07;;;2.07;;
13349;SDS011;6744;53.190;6.576;2023-07-13T14:23:52;3.97;;;1.57;;
13349;SDS011;6744;53.190;6.576;2023-07-13T14:26:18;3.50;;;1.70;;
13349;SDS011;6744;53.190;6.576;2023-07-13T14:28:45;3.67;;;1.50;;
13349;SDS011;6744;53.190;6.576;2023-07-13T14:31:12;3.20;;;1.60;;
13349;SDS011;6744;53.190;6.576;2023-07-13T14:33:39;3.33;;;1.77;;
13349;SDS011;6744;53.190;6.576;2023-07-13T14:38:56;5.17;;;2.10;;
13349;SDS011;6744;53.190;6.576;2023-07-13T14:41:22;2.07;;;1.30;;
13349;SDS011;6744;53.190;6.576;2023-07-13T14:43:48;3.10;;;1.53;;
13349;SDS011;6744;53.190;6.576;2023-07-13T14:46:33;2.87;;;1.40;;
13349;SDS011;6744;53.190;6.576;2023-07-13T14:49:00;4.87;;;1.87;;
13349;SDS011;6744;53.190;6.576;2023-07-13T14:51:28;2.97;;;1.30;;
13349;SDS011;6744;53.190;6.576;2023-07-13T14:53:55;2.90;;;1.50;;
13349;SDS011;6744;53.190;6.576;2023-07-13T14:56:20;3.47;;;1.80;;
13349;SDS011;6744;53.190;6.576;2023-07-13T14:58:45;6.20;;;1.80;;
13349;SDS011;6744;53.190;6.576;2023-07-13T15:01:12;4.57;;;1.90;;
13349;SDS011;6744;53.190;6.576;2023-07-13T15:03:41;3.80;;;1.60;;
13349;SDS011;6744;53.190;6.576;2023-07-13T15:06:10;3.60;;;1.40;;
13349;SDS011;6744;53.190;6.576;2023-07-13T15:08:37;2.30;;;1.67;;
13349;SDS011;6744;53.190;6.576;2023-07-13T15:11:02;5.37;;;1.77;;
13349;SDS011;6744;53.190;6.576;2023-07-13T15:13:30;3.97;;;1.57;;
13349;SDS011;6744;53.190;6.576;2023-07-13T15:15:55;5.97;;;2.20;;
13349;SDS011;6744;53.190;6.576;2023-07-13T15:18:22;5.40;;;1.70;;
13349;SDS011;6744;53.190;6.576;2023-07-13T15:20:49;6.77;;;2.10;;
13349;SDS011;6744;53.190;6.576;2023-07-13T15:23:16;4.07;;;1.70;;
13349;SDS011;6744;53.190;6.576;2023-07-13T15:25:42;3.90;;;1.80;;
13349;SDS011;6744;53.190;6.576;2023-07-13T15:28:08;6.10;;;2.03;;
13349;SDS011;6744;53.190;6.576;2023-07-13T15:30:44;5.27;;;1.93;;
13349;SDS011;6744;53.190;6.576;2023-07-13T15:33:13;2.93;;;1.60;;
13349;SDS011;6744;53.190;6.576;2023-07-13T15:35:49;3.43;;;1.70;;
13349;SDS011;6744;53.190;6.576;2023-07-13T15:40:46;5.10;;;1.83;;
13349;SDS011;6744;53.190;6.576;2023-07-13T15:43:13;4.43;;;1.90;;
13349;SDS011;6744;53.190;6.576;2023-07-13T15:45:39;4.23;;;2.07;;
13349;SDS011;6744;53.190;6.576;2023-07-13T15:48:13;3.90;;;1.67;;
13349;SDS011;6744;53.190;6.576;2023-07-13T15:50:43;3.83;;;1.80;;
13349;SDS011;6744;53.190;6.576;2023-07-13T15:53:13;4.60;;;2.20;;
13349;SDS011;6744;53.190;6.576;2023-07-13T15:55:39;3.33;;;1.87;;